Time;durP1;ratioP1;P1;durP2;ratioP2;P2;SDS_P1;SDS_P2;PMS_P1;PMS_P2;Temp;Humidity;BMP_temperature;BMP_pressure;BME280_temperature;BME280_humidity;BME280_pressure;Samples;Min_cycle;Max_cycle;Signal;HPM_P1;HPM_P2
2022/06/30 00:02:17;;;;;;;10.50;8.68;;;;;;;30.54;70.69;100308.00;5062282;28;70470;-38
2022/06/30 00:04:48;;;;;;;11.55;8.60;;;;;;;30.57;70.70;100304.81;5042966;28;66776;-38
2022/06/30 00:07:19;;;;;;;9.07;8.18;;;;;;;30.59;71.65;100318.97;5054384;28;69407;-37
2022/06/30 00:09:50;;;;;;;15.80;8.38;;;;;;;30.64;71.24;100313.66;5036629;28;66122;-37
2022/06/30 00:12:21;;;;;;;14.15;7.45;;;;;;;30.69;71.68;100316.47;5074083;28;71182;-38
2022/06/30 00:14:52;;;;;;;9.13;8.27;;;;;;;30.67;72.25;100318.63;5075328;28;66275;-37
2022/06/30 00:17:24;;;;;;;10.30;7.97;;;;;;;30.73;72.03;100325.81;5074441;28;70144;-37
2022/06/30 00:19:55;;;;;;;7.97;7.22;;;;;;;30.80;71.95;100324.91;5065566;28;67891;-38
2022/06/30 00:22:26;;;;;;;10.93;7.55;;;;;;;30.80;72.08;100324.91;5068345;28;70519;-36
2022/06/30 00:24:57;;;;;;;9.70;7.30;;;;;;;30.85;72.06;100328.56;5066703;28;65093;-36
2022/06/30 00:27:28;;;;;;;13.52;7.93;;;;;;;30.91;72.07;100318.69;5073893;28;70821;-38
2022/06/30 00:30:00;;;;;;;9.17;8.37;;;;;;;30.91;73.37;100322.19;5055117;28;66083;-36
2022/06/30 00:32:31;;;;;;;10.90;9.57;;;;;;;30.99;72.95;100329.16;5070712;28;69646;-36
2022/06/30 00:35:03;;;;;;;10.63;9.07;;;;;;;31.00;73.03;100322.69;5076004;28;65468;-37
2022/06/30 00:37:34;;;;;;;14.00;9.80;;;;;;;31.03;73.09;100329.50;5057652;28;70252;-36
2022/06/30 00:40:06;;;;;;;11.27;9.63;;;;;;;31.19;69.97;100333.41;5053212;28;65402;-37
2022/06/30 00:42:37;;;;;;;9.93;8.77;;;;;;;31.15;69.32;100317.63;5071964;28;69685;-39
2022/06/30 00:45:08;;;;;;;11.48;8.18;;;;;;;31.30;69.12;100327.16;5078932;28;66943;-38
2022/06/30 00:47:40;;;;;;;8.98;8.27;;;;;;;31.39;68.37;100339.31;5071703;28;70329;-37
2022/06/30 00:50:11;;;;;;;17.25;8.10;;;;;;;31.39;68.41;100325.78;5064394;28;66729;-41
2022/06/30 00:52:43;;;;;;;12.68;7.45;;;;;;;31.52;68.03;100330.94;5065298;28;70098;-38
2022/06/30 00:55:17;;;;;;;9.00;8.10;;;;;;;31.56;67.96;100337.53;5065138;28;65752;-39
2022/06/30 00:57:49;;;;;;;9.13;8.27;;;;;;;31.28;67.83;100280.50;5063765;28;70037;-38
2022/06/30 01:00:19;;;;;;;;;;;;;;;31.30;70.14;100338.00;5062428;28;66380;-37
2022/06/30 01:02:53;;;;;;;8.98;7.15;;;;;;;31.66;67.48;100336.94;5078508;28;69058;-38
2022/06/30 01:05:26;;;;;;;7.20;6.60;;;;;;;31.47;67.54;100306.44;5066147;28;66467;-38
2022/06/30 01:07:58;;;;;;;6.82;6.28;;;;;;;31.76;67.13;100337.16;5066141;28;70736;-38
2022/06/30 01:13:18;;;;;;;9.93;6.28;;;;;;;31.76;67.15;100330.88;5075554;28;69848;-38
2022/06/30 01:15:49;;;;;;;7.88;7.07;;;;;;;31.83;67.05;100337.84;5063581;28;65581;-39
2022/06/30 01:18:20;;;;;;;6.67;6.13;;;;;;;31.79;66.87;100330.44;5048620;28;69809;-38
2022/06/30 01:20:51;;;;;;;6.85;6.35;;;;;;;31.90;66.38;100351.28;5063213;28;65229;-37
2022/06/30 01:23:23;;;;;;;6.13;5.72;;;;;;;31.93;66.85;100356.25;5049985;28;69832;-37
2022/06/30 01:25:54;;;;;;;7.05;6.45;;;;;;;31.94;66.57;100349.75;5050605;28;66020;-38
2022/06/30 01:28:25;;;;;;;7.77;6.20;;;;;;;31.98;66.47;100361.78;5078896;28;70115;-38
2022/06/30 01:30:56;;;;;;;6.57;5.70;;;;;;;31.98;66.49;100355.50;5076324;28;65996;-38
2022/06/30 01:33:27;;;;;;;6.72;5.53;;;;;;;32.03;66.39;100356.44;5063281;28;70099;-39
2022/06/30 01:35:59;;;;;;;5.85;5.45;;;;;;;32.03;66.36;100359.16;5075470;28;65995;-38
2022/06/30 01:38:30;;;;;;;6.00;5.60;;;;;;;32.05;66.47;100351.59;5070520;28;70245;-39
2022/06/30 01:41:01;;;;;;;5.83;5.40;;;;;;;32.09;65.96;100348.41;5074343;28;65990;-38
2022/06/30 01:43:32;;;;;;;6.50;5.90;;;;;;;32.11;65.70;100360.66;5068629;28;69973;-38
2022/06/30 01:46:03;;;;;;;6.10;5.45;;;;;;;32.03;66.04;100342.88;5074650;28;66293;-38
2022/06/30 01:48:34;;;;;;;4.78;4.40;;;;;;;32.17;65.45;100350.75;5069032;28;70210;-39
2022/06/30 01:51:05;;;;;;;5.43;4.93;;;;;;;32.19;65.79;100351.31;5060018;28;66396;-38
2022/06/30 01:53:36;;;;;;;5.03;4.63;;;;;;;32.21;65.87;100343.78;5075852;28;69299;-38
2022/06/30 01:56:08;;;;;;;5.70;5.23;;;;;;;32.10;65.67;100340.03;5059520;28;66481;-38
2022/06/30 01:58:39;;;;;;;5.68;4.90;;;;;;;32.18;65.29;100344.22;5080949;28;70264;-38
2022/06/30 02:01:10;;;;;;;5.43;5.03;;;;;;;32.26;65.46;100358.25;5044398;28;64999;-38
2022/06/30 02:03:41;;;;;;;5.00;4.50;;;;;;;32.24;65.34;100354.16;5075919;28;70086;-38
2022/06/30 02:06:13;;;;;;;5.57;5.07;;;;;;;32.31;65.06;100357.53;5079599;28;66068;-38
2022/06/30 02:08:44;;;;;;;5.32;4.88;;;;;;;32.33;64.91;100347.25;5077151;28;71014;-38
2022/06/30 02:11:15;;;;;;;5.90;5.13;;;;;;;32.35;65.01;100339.69;5074870;28;67159;-38
2022/06/30 02:13:46;;;;;;;4.97;4.57;;;;;;;32.32;64.79;100339.34;5077223;27;69684;-39
2022/06/30 02:16:22;;;;;;;6.65;4.80;;;;;;;32.35;64.86;100342.41;5079768;28;66812;-38
2022/06/30 02:18:54;;;;;;;4.60;4.30;;;;;;;32.42;64.92;100345.78;5073173;28;70157;-38
2022/06/30 02:21:25;;;;;;;5.13;4.63;;;;;;;32.43;64.96;100344.75;5062986;28;66827;-40
2022/06/30 02:23:56;;;;;;;4.70;4.33;;;;;;;32.44;64.80;100321.94;5076830;28;70593;-38
2022/06/30 02:26:27;;;;;;;5.47;4.97;;;;;;;32.49;64.57;100324.78;5080431;28;65520;-39
2022/06/30 02:28:58;;;;;;;6.78;4.45;;;;;;;32.52;64.85;100322.66;5076207;28;71065;-38
2022/06/30 02:31:31;;;;;;;4.50;4.20;;;;;;;32.53;64.60;100318.84;5074452;28;67439;-38
2022/06/30 02:34:02;;;;;;;7.43;4.85;;;;;;;32.52;64.38;100306.38;5068816;28;70239;-38
2022/06/30 02:36:33;;;;;;;5.18;4.28;;;;;;;32.57;64.20;100314.56;5074244;28;67331;-38
2022/06/30 02:39:04;;;;;;;4.37;3.97;;;;;;;32.60;64.65;100319.53;5073320;28;69839;-38
2022/06/30 02:41:35;;;;;;;4.00;3.60;;;;;;;32.62;64.30;100330.94;5067635;28;67988;-37
2022/06/30 02:44:07;;;;;;;3.28;3.08;;;;;;;32.63;64.42;100327.19;5070029;28;70124;-37
2022/06/30 02:46:38;;;;;;;4.03;3.47;;;;;;;32.65;64.05;100328.59;5075644;28;66581;-39
2022/06/30 02:49:09;;;;;;;4.07;3.75;;;;;;;32.68;63.95;100328.09;5075660;28;69721;-39
2022/06/30 02:51:40;;;;;;;6.18;3.45;;;;;;;32.70;63.98;100330.56;5068942;28;65877;-38
2022/06/30 02:54:11;;;;;;;3.88;3.10;;;;;;;32.72;63.81;100323.00;5070709;28;69338;-38
2022/06/30 02:56:42;;;;;;;4.22;3.35;;;;;;;32.72;64.03;100328.41;5065687;28;66116;-37
2022/06/30 02:59:14;;;;;;;4.00;3.50;;;;;;;32.75;63.65;100317.06;5075183;28;70285;-38
2022/06/30 03:01:45;;;;;;;3.33;3.03;;;;;;;32.68;63.61;100311.81;5070783;28;66106;-36
2022/06/30 03:04:16;;;;;;;4.10;3.57;;;;;;;32.68;63.84;100309.09;5078172;28;69892;-39
2022/06/30 03:06:48;;;;;;;3.08;2.80;;;;;;;32.81;63.83;100321.50;5067241;28;66280;-38
2022/06/30 03:09:23;;;;;;;3.40;3.10;;;;;;;32.84;63.77;100321.00;5048299;28;43437;-39
2022/06/30 03:11:54;;;;;;;5.32;3.40;;;;;;;32.85;63.52;100317.25;5070857;28;67071;-38
2022/06/30 03:14:25;;;;;;;3.63;3.33;;;;;;;32.85;63.65;100314.53;5067995;28;71827;-37
2022/06/30 03:17:00;;;;;;;3.35;2.75;;;;;;;32.90;63.26;100314.59;5072336;28;66101;-38
2022/06/30 03:19:40;;;;;;;4.95;3.00;;;;;;;32.91;63.25;100310.81;5063072;28;69882;-38
2022/06/30 03:22:11;;;;;;;4.07;2.92;;;;;;;32.90;62.84;100309.19;5073943;28;66317;-38
2022/06/30 03:24:42;;;;;;;6.83;3.00;;;;;;;32.92;63.14;100301.56;5062613;28;69475;-38
2022/06/30 03:27:14;;;;;;;3.17;2.87;;;;;;;32.99;62.98;100308.72;5069591;28;64842;-39
2022/06/30 03:29:45;;;;;;;3.45;2.65;;;;;;;33.03;62.59;100308.03;5074162;28;69473;-37
2022/06/30 03:32:16;;;;;;;5.13;2.53;;;;;;;33.05;62.81;100305.06;5078669;28;66448;-39
2022/06/30 03:34:48;;;;;;;3.03;2.70;;;;;;;33.07;62.74;100302.91;5048066;28;71438;-39
2022/06/30 03:37:19;;;;;;;3.40;2.95;;;;;;;33.09;62.45;100308.94;5072505;28;65604;-38
2022/06/30 03:39:50;;;;;;;3.90;2.25;;;;;;;33.11;62.40;100304.88;5078017;28;71747;-38
2022/06/30 03:42:21;;;;;;;3.88;2.80;;;;;;;33.12;62.58;100305.69;5040406;28;66214;-38
2022/06/30 03:44:52;;;;;;;3.50;2.85;;;;;;;33.11;62.18;100301.34;5071835;28;69483;-38
2022/06/30 03:47:23;;;;;;;2.93;2.47;;;;;;;33.18;62.36;100301.97;5071291;28;66415;-39
2022/06/30 03:49:54;;;;;;;3.30;3.00;;;;;;;33.02;62.46;100276.50;5068057;28;69922;-39
2022/06/30 03:52:25;;;;;;;3.63;2.75;;;;;;;33.18;62.21;100301.16;5071192;28;65264;-38
2022/06/30 03:54:56;;;;;;;5.40;2.63;;;;;;;33.20;62.26;100310.72;5079079;28;69730;-39
2022/06/30 03:57:27;;;;;;;4.45;2.50;;;;;;;33.19;62.11;100306.38;5076439;28;66344;-39
2022/06/30 03:59:58;;;;;;;3.47;2.93;;;;;;;33.19;61.92;100303.66;5075735;28;71204;-38
2022/06/30 04:02:32;;;;;;;3.38;3.08;;;;;;;33.21;62.20;100315.09;5078778;28;66030;-38
2022/06/30 04:05:04;;;;;;;3.10;2.78;;;;;;;33.20;62.05;100313.44;5054193;28;69615;-38
2022/06/30 04:07:43;;;;;;;2.53;2.33;;;;;;;33.19;61.76;100295.50;5061178;28;65670;-38
2022/06/30 04:10:15;;;;;;;4.65;2.75;;;;;;;33.13;62.05;100280.19;5073447;28;70904;-39
2022/06/30 04:12:46;;;;;;;3.17;2.88;;;;;;;33.23;62.04;100299.34;5049358;28;66493;-39
2022/06/30 04:15:16;;;;;;;3.10;2.83;;;;;;;33.21;62.06;100289.78;5074803;28;69506;-39
2022/06/30 04:17:48;;;;;;;3.33;3.03;;;;;;;33.25;61.88;100294.50;5057149;28;67494;-38
2022/06/30 04:20:19;;;;;;;7.17;2.43;;;;;;;33.26;61.74;100296.13;5074028;28;70116;-38
2022/06/30 04:22:52;;;;;;;4.88;2.92;;;;;;;32.96;61.45;100235.88;5061684;28;65600;-38
2022/06/30 04:25:23;;;;;;;3.75;2.90;;;;;;;33.23;61.44;100274.88;5073961;28;69579;-38
2022/06/30 04:27:57;;;;;;;3.42;3.13;;;;;;;33.23;61.79;100269.44;5081567;28;65988;-39
2022/06/30 04:33:19;;;;;;;7.75;3.67;;;;;;;33.31;61.48;100271.72;5072619;28;65646;-40
2022/06/30 04:35:50;;;;;;;3.27;2.97;;;;;;;33.31;61.57;100277.16;5063691;28;68947;-38
2022/06/30 04:38:21;;;;;;;3.50;3.20;;;;;;;33.35;61.46;100275.59;5036410;28;67966;-38
2022/06/30 04:43:42;;;;;;;6.40;3.72;;;;;;;33.38;61.35;100266.13;5072096;28;66152;-38
2022/06/30 04:46:13;;;;;;;6.32;3.03;;;;;;;33.41;61.39;100259.38;5082036;28;70659;-38
2022/06/30 04:48:44;;;;;;;4.75;3.30;;;;;;;33.42;61.23;100261.81;5070313;28;65946;-38
2022/06/30 04:51:15;;;;;;;5.57;3.20;;;;;;;33.45;61.18;100265.94;5071665;28;70007;-39
2022/06/30 04:53:47;;;;;;;4.03;3.40;;;;;;;33.47;61.20;100271.94;5063756;28;65797;-38
2022/06/30 04:56:18;;;;;;;5.93;3.05;;;;;;;33.50;60.97;100263.28;5064137;28;68964;-38
2022/06/30 04:58:49;;;;;;;;;;;;;;;33.17;61.64;100254.16;5063728;28;65719;-38
2022/06/30 05:05:06;;;;;;;4.07;3.78;;;;;;;33.50;60.96;100250.50;5071153;28;65430;-37
2022/06/30 05:07:38;;;;;;;5.30;4.10;;;;;;;33.54;60.97;100243.53;5064847;28;70305;-38
2022/06/30 05:10:09;;;;;;;;;;;;;;;33.24;61.42;100233.06;5055125;28;65987;-38
2022/06/30 05:12:40;;;;;;;4.70;4.30;;;;;;;33.56;60.98;100237.81;5080529;28;70900;-37
2022/06/30 05:15:12;;;;;;;4.15;3.85;;;;;;;33.56;60.75;100233.19;5081335;28;66704;-39
2022/06/30 05:17:43;;;;;;;;;;;;;;;33.26;61.18;100239.03;5079402;28;69200;-38
2022/06/30 05:20:15;;;;;;;5.25;4.80;;;;;;;33.60;60.81;100228.09;5063107;28;66434;-38
2022/06/30 05:22:46;;;;;;;9.55;5.15;;;;;;;33.63;60.63;100230.28;5075413;28;70074;-38
2022/06/30 05:28:11;;;;;;;7.57;6.18;;;;;;;33.71;60.70;100216.25;5073825;28;69769;-38
2022/06/30 05:30:43;;;;;;;9.00;7.03;;;;;;;33.69;60.52;100202.06;5073104;28;65079;-39
2022/06/30 05:33:15;;;;;;;8.35;7.72;;;;;;;33.67;60.39;100204.22;5075884;28;69133;-38
2022/06/30 05:35:52;;;;;;;8.65;7.82;;;;;;;33.79;60.11;100213.06;5074099;28;66182;-38
2022/06/30 05:38:23;;;;;;;9.07;8.38;;;;;;;33.79;60.23;100206.78;5061993;28;70244;-39
2022/06/30 05:40:55;;;;;;;10.60;9.48;;;;;;;33.81;60.18;100216.34;5060441;28;66185;-39
2022/06/30 05:43:26;;;;;;;;;;;;;;;33.51;60.60;100210.53;5058577;28;70523;-39
2022/06/30 05:45:58;;;;;;;11.30;10.30;;;;;;;33.83;59.91;100204.41;5077653;28;66507;-38
2022/06/30 05:48:29;;;;;;;18.30;9.88;;;;;;;33.77;58.96;100203.53;5070366;28;69987;-38
2022/06/30 05:51:01;;;;;;;12.48;9.85;;;;;;;33.68;59.32;100194.16;5073890;28;65914;-39
2022/06/30 05:53:32;;;;;;;11.88;10.77;;;;;;;33.64;59.76;100193.03;5063012;28;70452;-38
2022/06/30 05:56:04;;;;;;;12.63;11.02;;;;;;;33.58;60.21;100187.53;5076634;28;66324;-39
2022/06/30 05:58:35;;;;;;;10.80;9.77;;;;;;;33.41;60.74;100161.50;5068598;28;69507;-37
2022/06/30 06:01:06;;;;;;;14.87;10.50;;;;;;;33.55;60.96;100179.09;5066034;28;67045;-38
2022/06/30 06:03:37;;;;;;;14.17;11.10;;;;;;;33.54;61.22;100166.53;5064038;28;70085;-38
2022/06/30 06:06:08;;;;;;;12.03;8.73;;;;;;;33.53;61.33;100160.28;5063682;28;65945;-38
2022/06/30 06:08:40;;;;;;;11.23;9.75;;;;;;;33.52;61.43;100168.69;5067983;28;68948;-38
2022/06/30 06:11:11;;;;;;;9.18;8.27;;;;;;;33.56;61.33;100164.41;5069511;28;66565;-38
2022/06/30 06:13:42;;;;;;;9.53;8.70;;;;;;;33.47;61.75;100147.69;5067002;28;70558;-38
2022/06/30 06:16:13;;;;;;;8.48;7.82;;;;;;;33.52;61.76;100150.50;5069088;28;66145;-39
2022/06/30 06:18:45;;;;;;;14.10;8.07;;;;;;;33.56;61.49;100145.34;5070340;28;71904;-39
2022/06/30 06:21:16;;;;;;;10.23;7.70;;;;;;;33.61;61.54;100129.09;5075862;28;67976;-39
2022/06/30 06:23:48;;;;;;;10.93;6.88;;;;;;;33.73;61.04;100137.09;5067522;28;70172;-38
2022/06/30 06:26:20;;;;;;;9.63;7.45;;;;;;;33.73;60.92;100128.94;5052452;28;66265;-38
2022/06/30 06:29:06;;;;;;;13.00;7.47;;;;;;;33.74;61.32;100134.13;5076382;28;68885;-38
2022/06/30 06:31:39;;;;;;;8.73;6.53;;;;;;;33.47;60.97;100084.34;5078647;28;66716;-38
2022/06/30 06:34:12;;;;;;;8.70;6.35;;;;;;;33.85;61.08;100117.88;5067394;28;69650;-38
2022/06/30 06:36:44;;;;;;;6.60;6.03;;;;;;;33.92;60.96;100129.38;5073652;28;67981;-39
2022/06/30 06:39:15;;;;;;;10.73;5.97;;;;;;;33.96;60.40;100119.59;5075259;28;70341;-38
2022/06/30 06:41:46;;;;;;;10.13;5.88;;;;;;;33.93;60.04;100106.53;5073008;28;66383;-39
2022/06/30 06:44:17;;;;;;;7.93;6.13;;;;;;;34.06;60.10;100122.44;5075403;28;70309;-38
2022/06/30 06:46:48;;;;;;;6.82;5.60;;;;;;;34.09;59.56;100112.94;5073633;28;66227;-38
2022/06/30 06:49:19;;;;;;;8.65;6.25;;;;;;;34.13;59.22;100114.06;5071656;28;70671;-38
2022/06/30 06:51:50;;;;;;;8.87;5.43;;;;;;;34.16;59.12;100108.94;5075858;28;67121;-38
2022/06/30 06:54:21;;;;;;;7.50;4.97;;;;;;;34.19;58.28;100097.53;5069420;28;69286;-39
2022/06/30 06:56:53;;;;;;;6.57;4.60;;;;;;;34.18;56.63;100090.41;5073954;28;65354;-39
2022/06/30 06:59:24;;;;;;;6.30;4.43;;;;;;;34.25;55.66;100096.47;5075633;28;69468;-40
2022/06/30 07:01:55;;;;;;;5.50;4.18;;;;;;;34.29;55.48;100085.06;5072550;28;65725;-40
2022/06/30 07:04:26;;;;;;;5.18;4.43;;;;;;;34.30;55.68;100081.22;5075510;28;70029;-38
2022/06/30 07:06:58;;;;;;;11.82;4.90;;;;;;;34.26;56.54;100068.16;5069066;28;65372;-39
2022/06/30 07:09:29;;;;;;;;;;;;;;;34.05;56.92;100080.00;5072645;28;69853;-39
2022/06/30 07:12:00;;;;;;;4.88;4.25;;;;;;;34.38;57.25;100075.28;5074553;28;64956;-38
2022/06/30 07:14:32;;;;;;;6.70;4.53;;;;;;;34.20;57.51;100033.81;5073779;28;70163;-39
2022/06/30 07:17:03;;;;;;;10.07;4.50;;;;;;;34.43;57.76;100064.44;5075414;28;66737;-39
2022/06/30 07:19:34;;;;;;;6.85;4.30;;;;;;;34.48;57.44;100072.63;5076901;28;70004;-38
2022/06/30 07:22:06;;;;;;;9.57;4.53;;;;;;;34.49;57.45;100063.38;5068248;28;65960;-39
2022/06/30 07:24:37;;;;;;;7.68;4.22;;;;;;;34.42;57.39;100047.28;5059332;28;69523;-39
2022/06/30 07:27:08;;;;;;;6.20;4.07;;;;;;;34.53;57.25;100075.41;5070188;28;65481;-39
2022/06/30 07:29:39;;;;;;;6.53;4.50;;;;;;;34.55;57.11;100067.78;5069404;28;69324;-38
2022/06/30 07:32:11;;;;;;;4.45;4.05;;;;;;;34.48;57.16;100056.31;5063876;28;66310;-39
2022/06/30 07:34:42;;;;;;;8.45;3.67;;;;;;;34.58;57.15;100058.31;5068154;28;70238;-40
2022/06/30 07:37:13;;;;;;;5.20;3.67;;;;;;;34.57;56.96;100054.72;5047703;28;65130;-38
2022/06/30 07:39:44;;;;;;;3.83;3.38;;;;;;;34.57;57.35;100041.13;5079254;28;70467;-38
2022/06/30 07:42:15;;;;;;;3.70;3.40;;;;;;;34.54;57.18;100038.91;5068386;28;65285;-38
2022/06/30 07:44:46;;;;;;;10.05;3.85;;;;;;;34.47;57.25;100041.88;5070204;28;70413;-38
2022/06/30 07:47:18;;;;;;;4.78;3.95;;;;;;;34.59;56.96;100060.75;5067856;28;66252;-38
2022/06/30 07:49:49;;;;;;;3.73;3.40;;;;;;;34.58;57.10;100050.13;5082672;28;71019;-37
2022/06/30 07:52:20;;;;;;;4.72;3.30;;;;;;;34.60;57.15;100058.84;5078105;28;66240;-39
2022/06/30 07:54:52;;;;;;;5.68;3.15;;;;;;;34.56;56.87;100066.72;5078683;28;70436;-38
2022/06/30 07:57:23;;;;;;;4.38;3.35;;;;;;;34.60;57.07;100086.91;5074730;28;66315;-39
2022/06/30 08:00:04;;;;;;;4.72;3.15;;;;;;;34.51;57.37;100060.41;5076616;28;70137;-38
2022/06/30 08:02:39;;;;;;;4.93;4.03;;;;;;;34.57;57.15;100076.53;5080553;28;65547;-37
2022/06/30 08:05:10;;;;;;;4.57;4.07;;;;;;;34.56;58.88;100074.91;5083460;28;70850;-40
2022/06/30 08:07:41;;;;;;;;;;;;;;;34.25;60.27;100082.84;5066941;28;66098;-38
2022/06/30 08:10:12;;;;;;;3.78;3.47;;;;;;;34.54;58.84;100082.47;5083290;27;68973;-37
2022/06/30 08:12:44;;;;;;;4.88;3.42;;;;;;;34.53;59.42;100063.69;5078376;28;66414;-39
2022/06/30 08:15:15;;;;;;;4.55;3.47;;;;;;;34.52;59.38;100065.59;5077231;28;70097;-37
2022/06/30 08:17:46;;;;;;;3.75;3.08;;;;;;;34.50;59.07;100091.44;5063646;28;66035;-38
2022/06/30 08:20:17;;;;;;;4.53;3.33;;;;;;;34.50;58.97;100138.56;5085928;28;69452;-39
2022/06/30 08:22:48;;;;;;;3.43;2.97;;;;;;;34.42;59.03;100158.91;5087498;28;67184;-39
2022/06/30 08:25:20;;;;;;;3.22;2.90;;;;;;;34.44;59.27;100164.94;5061808;28;70468;-38
2022/06/30 08:27:51;;;;;;;5.57;3.10;;;;;;;34.42;59.33;100133.59;5080749;28;65924;-39
2022/06/30 08:30:23;;;;;;;3.60;2.20;;;;;;;34.38;59.21;100102.53;5079297;28;71378;-37
2022/06/30 08:32:54;;;;;;;3.05;2.53;;;;;;;34.36;59.30;100091.91;5085073;28;66434;-39
2022/06/30 08:35:25;;;;;;;6.33;2.90;;;;;;;34.31;59.20;100085.63;5080760;27;70229;-37
2022/06/30 08:38:16;;;;;;;3.63;2.95;;;;;;;34.29;59.39;100095.94;5080322;28;65252;-38
2022/06/30 08:43:39;;;;;;;4.93;2.67;;;;;;;34.21;59.57;100117.13;5071057;28;66253;-39
2022/06/30 08:46:11;;;;;;;3.08;2.78;;;;;;;34.19;59.70;100119.28;5083699;28;69827;-38
2022/06/30 08:48:43;;;;;;;4.72;2.85;;;;;;;34.08;59.63;100095.81;5082823;28;66675;-39
2022/06/30 08:51:18;;;;;;;3.10;2.65;;;;;;;33.95;59.62;100071.72;5074179;28;70419;-40
2022/06/30 08:53:56;;;;;;;3.72;2.40;;;;;;;34.06;59.64;100097.97;5076743;28;66422;-38
2022/06/30 08:56:35;;;;;;;4.07;2.63;;;;;;;33.78;59.31;100074.59;5077795;28;70178;-37
2022/06/30 08:59:06;;;;;;;3.40;2.75;;;;;;;34.00;59.75;100110.69;5076330;28;66678;-38
2022/06/30 09:01:37;;;;;;;3.78;2.47;;;;;;;33.94;59.91;100091.88;5080229;28;68544;-37
2022/06/30 09:04:12;;;;;;;2.85;2.65;;;;;;;33.93;60.22;100103.81;5072907;28;66409;-39
2022/06/30 09:06:44;;;;;;;2.53;2.05;;;;;;;33.88;59.86;100103.75;5070535;28;70055;-38
2022/06/30 09:09:16;;;;;;;3.45;3.15;;;;;;;33.86;59.99;100123.06;5068325;28;66099;-38
2022/06/30 09:11:54;;;;;;;3.00;2.70;;;;;;;33.84;60.40;100132.56;5075006;28;70643;-38
2022/06/30 09:14:41;;;;;;;5.88;2.25;;;;;;;33.76;60.29;100137.38;5079436;28;66575;-38
2022/06/30 09:17:21;;;;;;;3.35;2.45;;;;;;;33.56;60.03;100101.84;5059162;28;70035;-39
2022/06/30 09:19:59;;;;;;;3.40;2.15;;;;;;;33.73;60.17;100140.63;5070535;28;65828;-41
2022/06/30 09:22:31;;;;;;;2.97;2.30;;;;;;;33.70;60.18;100133.00;5075916;28;69220;-38
2022/06/30 09:25:08;;;;;;;2.50;2.30;;;;;;;33.68;60.24;100135.13;5076666;28;66393;-37
2022/06/30 09:27:42;;;;;;;2.08;1.88;;;;;;;33.65;59.93;100129.41;5075166;28;69435;-38
2022/06/30 09:30:18;;;;;;;2.30;2.10;;;;;;;33.57;60.01;100117.06;5070558;28;66369;-38
2022/06/30 09:33:02;;;;;;;2.72;2.20;;;;;;;33.61;60.17;100129.09;5077404;28;70272;-38
2022/06/30 09:35:33;;;;;;;2.90;2.28;;;;;;;33.53;60.35;100124.94;5071951;28;66283;-39
2022/06/30 09:38:04;;;;;;;2.72;1.92;;;;;;;33.54;60.45;100128.47;5045364;28;69933;-38
2022/06/30 09:41:04;;;;;;;1.87;1.63;;;;;;;33.46;60.50;100131.63;5070953;28;66141;-38
2022/06/30 09:43:33;;;;;;;2.53;2.33;;;;;;;33.50;60.52;100132.75;5075602;28;70225;-38
2022/06/30 09:46:08;;;;;;;2.17;1.88;;;;;;;33.49;60.42;100128.38;5079316;28;66331;-38
2022/06/30 09:48:40;;;;;;;3.67;1.80;;;;;;;33.47;60.66;100116.97;5077138;28;70069;-39
2022/06/30 09:51:12;;;;;;;6.78;2.55;;;;;;;33.36;60.76;100108.69;5076944;28;66480;-37
2022/06/30 09:53:42;;;;;;;;;;;;;;;33.05;62.04;100126.56;5079876;28;70333;-38
2022/06/30 09:56:16;;;;;;;8.38;2.40;;;;;;;33.36;60.99;100144.03;5070133;28;66825;-37
2022/06/30 09:58:47;;;;;;;2.53;1.77;;;;;;;33.35;60.95;100150.56;5080755;28;70559;-38
2022/06/30 10:01:18;;;;;;;4.43;1.98;;;;;;;33.33;61.18;100163.56;5079699;28;66378;-38
2022/06/30 10:04:03;;;;;;;2.50;2.23;;;;;;;32.72;61.27;100079.38;5063356;28;71388;-38
2022/06/30 10:06:37;;;;;;;2.80;2.08;;;;;;;33.32;61.00;100174.69;5041912;28;66271;-38
2022/06/30 10:09:09;;;;;;;2.42;1.98;;;;;;;33.32;61.27;100180.97;5064924;28;70128;-39
2022/06/30 10:11:41;;;;;;;2.50;2.30;;;;;;;33.32;61.30;100191.00;5068675;28;66749;-39
2022/06/30 10:14:14;;;;;;;2.20;2.00;;;;;;;33.30;61.37;100199.44;5071652;28;70043;-38
2022/06/30 10:16:46;;;;;;;2.60;2.40;;;;;;;33.30;61.21;100204.84;5070975;28;66089;-38
2022/06/30 10:19:17;;;;;;;3.10;2.80;;;;;;;33.28;61.87;100217.06;5076313;28;69647;-40
2022/06/30 10:21:50;;;;;;;5.85;4.03;;;;;;;33.19;62.79;100213.16;5079096;28;65370;-38
2022/06/30 10:24:21;;;;;;;4.75;4.13;;;;;;;32.76;64.74;100177.47;5058435;28;70484;-37
2022/06/30 10:29:51;;;;;;;8.10;4.43;;;;;;;32.35;66.25;100144.28;5070168;27;70310;-37
2022/06/30 10:32:28;;;;;;;5.95;4.82;;;;;;;32.89;65.02;100214.31;5072655;28;66440;-38
2022/06/30 10:35:10;;;;;;;4.60;4.20;;;;;;;32.90;65.35;100197.78;5076044;28;70000;-39
2022/06/30 10:37:50;;;;;;;4.68;4.28;;;;;;;32.63;64.57;100147.97;5080073;28;66996;-38
2022/06/30 10:40:49;;;;;;;5.13;4.60;;;;;;;32.91;65.48;100202.16;5072124;28;70379;-37
2022/06/30 10:43:20;;;;;;;5.28;4.60;;;;;;;33.02;64.56;100207.75;5069829;28;66264;-37
2022/06/30 10:45:56;;;;;;;5.57;5.07;;;;;;;32.79;64.90;100162.56;5076110;28;70305;-38
2022/06/30 10:48:47;;;;;;;6.57;5.18;;;;;;;33.02;64.53;100195.00;5066912;28;66242;-39
2022/06/30 10:51:18;;;;;;;9.20;5.70;;;;;;;33.08;64.70;100201.31;5065188;28;70509;-37
2022/06/30 10:53:52;;;;;;;5.97;5.53;;;;;;;33.09;64.99;100201.03;5063716;28;66053;-36
2022/06/30 10:56:44;;;;;;;5.82;5.32;;;;;;;33.10;64.86;100200.00;5069575;28;70134;-38
2022/06/30 10:59:16;;;;;;;5.47;4.97;;;;;;;33.08;64.97;100209.47;5070493;28;66529;-37
2022/06/30 11:02:12;;;;;;;5.68;4.93;;;;;;;33.01;66.01;100214.25;5066314;28;69566;-38
2022/06/30 11:05:23;;;;;;;6.10;5.50;;;;;;;32.99;65.89;100219.91;5065397;28;65616;-37
2022/06/30 11:07:54;;;;;;;5.35;4.85;;;;;;;33.05;65.17;100223.56;5067351;28;70322;-37
2022/06/30 11:10:25;;;;;;;6.57;4.78;;;;;;;33.07;65.30;100237.69;5078495;28;65720;-39
2022/06/30 11:12:56;;;;;;;4.53;4.23;;;;;;;33.07;65.26;100243.13;5080081;28;69973;-38
2022/06/30 11:15:50;;;;;;;5.07;4.68;;;;;;;32.97;66.10;100251.94;5077265;28;67087;-38
2022/06/30 11:18:23;;;;;;;4.75;4.35;;;;;;;33.06;64.84;100257.78;5056083;28;69982;-38
2022/06/30 11:20:54;;;;;;;;;;;;;;;32.72;66.50;100257.81;5079507;28;65665;-38
2022/06/30 11:23:26;;;;;;;5.60;3.73;;;;;;;32.91;64.74;100261.91;5077615;28;69048;-37
2022/06/30 11:28:51;;;;;;;4.78;3.85;;;;;;;32.96;64.80;100252.16;5074891;28;68548;-38
2022/06/30 11:31:31;;;;;;;3.80;3.50;;;;;;;32.99;64.86;100251.66;5078196;28;67223;-38
2022/06/30 11:34:09;;;;;;;3.28;2.95;;;;;;;33.01;64.61;100260.44;5073365;28;70586;-39
2022/06/30 11:36:42;;;;;;;3.65;3.35;;;;;;;32.97;64.71;100253.84;5078630;28;65883;-39
2022/06/30 11:39:15;;;;;;;4.50;3.20;;;;;;;32.99;64.32;100265.25;5076540;28;70603;-38
2022/06/30 11:41:56;;;;;;;4.15;2.97;;;;;;;32.88;64.47;100256.97;5076735;28;65500;-38
2022/06/30 11:44:38;;;;;;;3.67;3.38;;;;;;;32.89;64.39;100264.03;5052322;28;70150;-37
2022/06/30 11:47:17;;;;;;;3.47;3.17;;;;;;;32.58;64.64;100207.63;5070263;28;66759;-38
2022/06/30 11:49:54;;;;;;;3.65;3.35;;;;;;;32.93;64.66;100259.78;5075065;28;69966;-36
2022/06/30 11:52:35;;;;;;;3.65;3.35;;;;;;;32.94;64.56;100271.47;5069083;28;66512;-38
2022/06/30 11:55:17;;;;;;;3.42;3.13;;;;;;;32.62;64.48;100222.34;5073607;28;70114;-37
2022/06/30 11:57:49;;;;;;;3.70;3.00;;;;;;;32.88;64.70;100275.19;5077802;28;66259;-38
2022/06/30 12:00:23;;;;;;;3.80;3.50;;;;;;;32.60;64.61;100227.22;5052165;28;69758;-38
2022/06/30 12:02:55;;;;;;;3.55;3.22;;;;;;;32.88;64.73;100278.72;5074481;28;66633;-37
2022/06/30 12:05:31;;;;;;;3.70;3.50;;;;;;;32.87;64.61;100282.47;5063175;28;70327;-39
2022/06/30 12:08:02;;;;;;;3.80;3.50;;;;;;;32.88;64.53;100288.75;5065386;28;67131;-38
2022/06/30 12:10:37;;;;;;;6.93;3.60;;;;;;;32.80;64.51;100281.84;5063111;28;69686;-39
2022/06/30 12:13:08;;;;;;;4.03;3.72;;;;;;;32.81;64.56;100283.47;5067832;28;66349;-38
2022/06/30 12:15:39;;;;;;;4.30;3.70;;;;;;;32.83;64.64;100292.22;5060124;28;69410;-39
2022/06/30 12:18:12;;;;;;;6.65;3.95;;;;;;;32.83;64.63;100296.81;5065143;28;66418;-38